Main page
METAR-TAF:

METAR-TAF

Airports :

Moore County Airport

Dumas, Texas, United States

latitude: 35-51-28N, longitude: 102-00-47W, elevation: 3703 ft

Current weather observation

The report was made 42 minutes ago, at 16:35 UTC
Wind 22 mph from the South/Southwest with gusts up to 29 mph
Temperature 77°F
Humidity 57%
Pressure 30.00 in. Hg
Visibility: 10 miles
Clear sky

METAR: KDUX 151635Z AUTO 20019G25KT 10SM CLR 25/16 A3000 RMK AO2 T02540162

Time: 12:17 (17:17 UTC)


TAF: missing

Weather observations and forecasts of more than 4000 airports (METAR and TAF reports).

The available stations are represented by yellow and red dots on the map.

Hover mouse over dot to see the name of the station.

Then click to see weather observations and forecasts.

To change the map : click on the green buttons with a black cross to zoom in, on the green button with a dash to zoom out, or on the green arrows for adjacent maps.


METAR-TAF: